createdAt,value
2019-03-26T00:00:28.485Z,99.90
2019-03-26T00:02:57.378Z,99.90
2019-03-26T00:05:26.004Z,99.90
2019-03-26T00:07:54.585Z,99.90
2019-03-26T00:10:23.220Z,99.90
2019-03-26T00:12:51.824Z,99.90
2019-03-26T00:15:20.401Z,99.90
2019-03-26T00:17:48.966Z,99.90
2019-03-26T00:20:20.519Z,99.90
2019-03-26T00:22:50.609Z,99.90
2019-03-26T00:25:19.201Z,99.90
2019-03-26T00:27:47.758Z,99.90
2019-03-26T00:30:16.448Z,99.90
2019-03-26T00:32:45.105Z,99.90
2019-03-26T00:35:13.730Z,99.90
2019-03-26T00:37:42.318Z,99.90
2019-03-26T00:40:11.105Z,99.90
2019-03-26T00:42:39.646Z,99.90
2019-03-26T00:45:08.844Z,99.90
2019-03-26T00:47:37.404Z,99.90
2019-03-26T00:50:07.371Z,99.90
2019-03-26T00:52:36.109Z,99.90
2019-03-26T00:55:06.404Z,99.90
2019-03-26T00:57:35.059Z,99.90
2019-03-26T01:00:06.199Z,99.90
2019-03-26T01:02:34.838Z,99.90
2019-03-26T01:05:04.343Z,99.90
2019-03-26T01:07:33.874Z,99.90
2019-03-26T01:10:02.752Z,99.90
2019-03-26T01:12:34.407Z,99.90
2019-03-26T01:15:05.911Z,99.90
2019-03-26T01:17:34.476Z,99.90
2019-03-26T01:20:03.196Z,99.90
2019-03-26T01:22:31.766Z,99.90
2019-03-26T01:25:00.318Z,99.90
2019-03-26T01:27:35.844Z,99.90
2019-03-26T01:30:03.264Z,99.90
2019-03-26T01:32:31.858Z,99.90
2019-03-26T01:35:01.905Z,99.90
2019-03-26T01:37:30.561Z,99.90
2019-03-26T01:39:59.115Z,99.90
2019-03-26T01:42:27.666Z,99.90
2019-03-26T01:44:56.218Z,99.90
2019-03-26T01:47:24.815Z,99.90
2019-03-26T01:49:54.918Z,99.90
2019-03-26T01:52:23.583Z,99.90
2019-03-26T01:54:52.145Z,99.90
2019-03-26T01:57:21.605Z,99.90
2019-03-26T01:59:50.191Z,99.90
2019-03-26T02:02:18.749Z,99.90
2019-03-26T02:04:59.392Z,99.90
2019-03-26T02:07:17.528Z,99.90
2019-03-26T02:09:46.090Z,99.90
2019-03-26T02:15:10.719Z,99.90
2019-03-26T02:17:39.273Z,99.90
2019-03-26T02:20:09.464Z,99.90
2019-03-26T02:22:38.023Z,99.90
2019-03-26T02:25:06.652Z,99.90
2019-03-26T02:27:35.247Z,99.90
2019-03-26T02:30:04.357Z,99.90
2019-03-26T02:32:37.624Z,99.90
2019-03-26T02:35:17.678Z,99.90
2019-03-26T02:37:36.480Z,99.90
2019-03-26T02:40:06.826Z,99.90
2019-03-26T02:42:38.176Z,99.90
2019-03-26T02:45:06.988Z,99.90
2019-03-26T02:47:38.630Z,99.90
2019-03-26T02:50:09.316Z,99.90
2019-03-26T02:52:37.876Z,99.90
2019-03-26T02:55:06.725Z,99.90
2019-03-26T02:57:35.281Z,99.90
2019-03-26T03:00:05.764Z,99.90
2019-03-26T03:02:34.367Z,99.90
2019-03-26T03:05:02.936Z,99.90
2019-03-26T03:07:31.529Z,99.90
2019-03-26T03:10:00.469Z,99.90
2019-03-26T03:12:29.100Z,99.90
2019-03-26T03:14:58.559Z,99.90
2019-03-26T03:17:27.108Z,99.90
2019-03-26T03:19:55.693Z,99.90
2019-03-26T03:22:24.309Z,99.90
2019-03-26T03:24:53.001Z,99.90
2019-03-26T03:27:21.620Z,99.90
2019-03-26T03:29:50.183Z,99.90
2019-03-26T03:32:18.778Z,99.90
2019-03-26T03:34:47.344Z,99.90
2019-03-26T03:37:15.994Z,99.90
2019-03-26T03:39:44.563Z,99.90
2019-03-26T03:42:13.230Z,99.90
2019-03-26T03:44:41.967Z,99.90
2019-03-26T03:47:13.030Z,99.90
2019-03-26T03:49:41.873Z,99.90
2019-03-26T03:52:13.341Z,99.90
2019-03-26T03:54:44.404Z,99.90
2019-03-26T03:57:15.911Z,99.90
2019-03-26T03:59:46.612Z,99.90
2019-03-26T04:02:15.216Z,99.90
2019-03-26T04:04:43.774Z,99.90
2019-03-26T04:07:12.326Z,99.90
2019-03-26T04:09:40.941Z,99.90
2019-03-26T04:12:09.493Z,99.90
2019-03-26T04:14:39.087Z,99.90
2019-03-26T04:17:07.707Z,99.90
2019-03-26T04:19:36.266Z,99.90
2019-03-26T04:22:04.876Z,99.90
2019-03-26T04:24:33.434Z,99.90
2019-03-26T04:27:02.035Z,99.90
2019-03-26T04:29:30.585Z,99.90
2019-03-26T04:31:59.210Z,99.90
2019-03-26T04:34:27.817Z,99.90
2019-03-26T04:36:56.393Z,99.90
2019-03-26T04:39:24.944Z,99.90
2019-03-26T04:41:53.531Z,99.90
2019-03-26T04:44:22.099Z,99.90
2019-03-26T04:46:50.685Z,99.90
2019-03-26T04:49:19.248Z,99.90
2019-03-26T04:51:47.811Z,99.90
2019-03-26T04:54:16.388Z,99.90
2019-03-26T04:56:45.218Z,99.90
2019-03-26T04:59:13.817Z,99.90
2019-03-26T05:01:42.392Z,99.90
2019-03-26T05:04:10.938Z,99.90
2019-03-26T05:06:39.524Z,99.90
2019-03-26T05:09:08.073Z,99.90
2019-03-26T05:11:36.676Z,99.90
2019-03-26T05:14:05.211Z,99.90
2019-03-26T05:16:33.836Z,99.90
2019-03-26T05:19:02.426Z,99.90
2019-03-26T05:21:30.986Z,99.90
2019-03-26T05:23:59.592Z,99.90
2019-03-26T05:26:28.429Z,99.90
2019-03-26T05:28:56.978Z,99.90
2019-03-26T05:31:25.605Z,99.90
2019-03-26T05:33:54.212Z,99.90
2019-03-26T05:36:25.724Z,99.90
2019-03-26T05:38:54.538Z,99.90
2019-03-26T05:41:23.105Z,99.90
2019-03-26T05:43:51.694Z,99.90
2019-03-26T05:46:20.270Z,99.90
2019-03-26T05:48:48.829Z,99.90
2019-03-26T05:51:21.923Z,99.90
2019-03-26T05:53:52.236Z,99.90
2019-03-26T05:56:21.084Z,99.90
2019-03-26T05:58:49.641Z,99.90
2019-03-26T06:01:18.185Z,99.90
2019-03-26T06:03:46.779Z,99.90
2019-03-26T06:06:15.414Z,99.90
2019-03-26T06:08:44.289Z,99.90
2019-03-26T06:11:21.525Z,99.90
2019-03-26T06:13:50.116Z,99.90
2019-03-26T06:16:18.686Z,99.90
2019-03-26T06:18:58.249Z,99.90
2019-03-26T06:21:27.474Z,99.90
2019-03-26T06:23:57.559Z,99.90
2019-03-26T06:26:30.426Z,99.90
2019-03-26T06:29:01.329Z,99.90
2019-03-26T06:31:30.001Z,99.90
2019-03-26T06:33:58.583Z,99.90
2019-03-26T06:36:28.378Z,99.90
2019-03-26T06:38:58.015Z,99.90
2019-03-26T06:41:26.583Z,99.90
2019-03-26T06:43:55.139Z,99.90
2019-03-26T06:46:23.815Z,99.90
2019-03-26T06:48:52.381Z,99.90
2019-03-26T06:51:24.715Z,99.90
2019-03-26T06:53:53.337Z,99.90
2019-03-26T06:56:22.046Z,99.90
2019-03-26T06:58:50.633Z,99.90
2019-03-26T07:01:19.247Z,99.90
2019-03-26T07:03:47.922Z,99.90
2019-03-26T07:06:16.487Z,99.90
2019-03-26T07:08:45.046Z,99.90
2019-03-26T07:11:13.632Z,99.90
2019-03-26T07:13:42.200Z,99.90
2019-03-26T07:16:11.067Z,99.90
2019-03-26T07:18:39.890Z,99.90
2019-03-26T07:21:08.529Z,99.90
2019-03-26T07:23:37.184Z,99.90
2019-03-26T07:26:05.809Z,99.90
2019-03-26T07:28:34.490Z,99.90
2019-03-26T07:31:03.053Z,99.90
2019-03-26T07:33:39.760Z,99.90
2019-03-26T07:36:11.638Z,99.90
2019-03-26T07:38:44.645Z,99.90
2019-03-26T07:41:13.456Z,99.90
2019-03-26T07:43:42.088Z,99.90
2019-03-26T07:46:22.266Z,99.90
2019-03-26T07:48:59.965Z,99.90
2019-03-26T07:51:28.811Z,99.90
2019-03-26T07:53:57.367Z,99.90
2019-03-26T07:56:26.035Z,99.90
2019-03-26T07:58:54.602Z,99.90
2019-03-26T08:01:23.253Z,99.90
2019-03-26T08:03:52.755Z,99.90
2019-03-26T08:06:21.387Z,99.90
2019-03-26T08:08:50.065Z,99.90
2019-03-26T08:11:20.742Z,99.90
2019-03-26T08:13:49.316Z,99.90
2019-03-26T08:16:17.917Z,99.90
2019-03-26T08:18:46.457Z,99.90
2019-03-26T08:21:15.150Z,99.90
2019-03-26T08:23:43.789Z,99.90
2019-03-26T08:26:13.179Z,99.90
2019-03-26T08:28:41.741Z,99.90
2019-03-26T08:31:10.313Z,99.90
2019-03-26T08:33:40.554Z,99.90
2019-03-26T08:36:09.106Z,99.90
2019-03-26T08:38:37.712Z,99.90
2019-03-26T08:41:13.559Z,99.90
2019-03-26T08:43:50.466Z,99.90
2019-03-26T08:46:19.030Z,99.90
2019-03-26T08:48:47.604Z,99.90
2019-03-26T08:51:16.274Z,99.90
2019-03-26T08:53:44.834Z,99.80
2019-03-26T08:56:16.102Z,97.80
2019-03-26T08:58:45.112Z,97.50
2019-03-26T09:01:13.680Z,95.20
2019-03-26T09:03:45.084Z,95.80
2019-03-26T09:06:17.107Z,96.10
2019-03-26T09:08:46.841Z,96.40
2019-03-26T09:11:15.372Z,95.70
2019-03-26T09:13:43.940Z,96.60
2019-03-26T09:16:12.524Z,96.70
2019-03-26T09:18:41.090Z,97.50
2019-03-26T09:21:09.746Z,97.70
2019-03-26T09:23:38.382Z,97.30
2019-03-26T09:26:06.947Z,96.50
2019-03-26T09:28:40.273Z,96.20
2019-03-26T09:31:08.842Z,96.20
2019-03-26T09:33:37.439Z,97.60
2019-03-26T09:36:06.065Z,98.20
2019-03-26T09:38:39.242Z,98.40
2019-03-26T09:41:04.987Z,98.60
2019-03-26T09:43:35.457Z,97.50
2019-03-26T09:46:06.091Z,98.10
2019-03-26T09:48:37.519Z,98.60
2019-03-26T09:51:06.093Z,98.30
2019-03-26T09:53:34.759Z,98.40
2019-03-26T09:56:03.519Z,97.90
2019-03-26T09:58:32.173Z,97.20
2019-03-26T10:01:00.730Z,93.00
2019-03-26T10:03:30.177Z,93.90
2019-03-26T10:05:58.846Z,94.30
2019-03-26T10:08:27.411Z,94.40
2019-03-26T10:10:58.749Z,95.10
2019-03-26T10:13:27.298Z,95.30
2019-03-26T10:15:56.840Z,96.00
2019-03-26T10:18:25.496Z,96.30
2019-03-26T10:20:54.052Z,96.70
2019-03-26T10:23:22.636Z,96.40
2019-03-26T10:25:51.215Z,96.50
2019-03-26T10:28:19.806Z,96.90
2019-03-26T10:30:51.313Z,96.90
2019-03-26T10:33:19.970Z,96.10
2019-03-26T10:35:48.545Z,96.50
2019-03-26T10:38:19.856Z,96.50
2019-03-26T10:40:48.570Z,96.70
2019-03-26T10:43:17.152Z,97.00
2019-03-26T10:45:47.888Z,96.10
2019-03-26T10:48:19.225Z,96.60
2019-03-26T10:50:47.867Z,95.90
2019-03-26T10:53:16.475Z,95.60
2019-03-26T10:55:45.102Z,95.30
2019-03-26T10:58:13.768Z,95.40
2019-03-26T11:00:42.329Z,95.50
2019-03-26T11:03:13.553Z,95.60
2019-03-26T11:05:42.125Z,96.10
2019-03-26T11:08:10.749Z,96.10
2019-03-26T11:10:39.331Z,96.10
2019-03-26T11:13:07.951Z,96.40
2019-03-26T11:15:36.507Z,96.80
2019-03-26T11:18:06.866Z,97.00
2019-03-26T11:20:35.411Z,96.40
2019-03-26T11:23:05.897Z,96.10
2019-03-26T11:25:42.186Z,95.70
2019-03-26T11:28:10.739Z,95.50
2019-03-26T11:30:40.858Z,95.30
2019-03-26T11:33:10.960Z,95.20
2019-03-26T11:35:39.532Z,95.20
2019-03-26T11:38:08.257Z,95.00
2019-03-26T11:40:36.825Z,94.90
2019-03-26T11:43:05.418Z,94.80
2019-03-26T11:45:34.117Z,94.70
2019-03-26T11:48:02.802Z,94.00
2019-03-26T11:50:31.385Z,93.60
2019-03-26T11:52:59.974Z,93.60
2019-03-26T11:55:28.617Z,93.70
2019-03-26T12:00:58.675Z,93.30
2019-03-26T12:03:27.164Z,93.70
2019-03-26T12:05:56.071Z,93.90
2019-03-26T12:08:24.655Z,93.20
2019-03-26T12:10:53.970Z,93.30
2019-03-26T12:13:22.624Z,92.60
2019-03-26T12:15:51.345Z,93.00
2019-03-26T12:18:22.366Z,93.30
2019-03-26T12:20:51.776Z,93.60
2019-03-26T12:23:20.770Z,93.80
2019-03-26T12:25:49.392Z,93.90
2019-03-26T12:28:17.957Z,93.80
2019-03-26T12:30:46.592Z,93.60
2019-03-26T12:33:15.156Z,93.30
2019-03-26T12:35:43.715Z,93.30
2019-03-26T12:38:17.058Z,93.80
2019-03-26T12:40:45.733Z,93.40
2019-03-26T12:43:14.730Z,93.40
2019-03-26T12:45:43.748Z,93.30
2019-03-26T12:48:15.131Z,93.40
2019-03-26T12:50:45.350Z,93.20
2019-03-26T12:53:13.932Z,93.20
2019-03-26T12:55:42.483Z,93.40
2019-03-26T12:58:11.158Z,93.40
2019-03-26T13:00:39.730Z,93.50
2019-03-26T13:03:11.145Z,93.50
2019-03-26T13:05:39.864Z,93.50
2019-03-26T13:08:09.960Z,93.40
2019-03-26T13:10:38.663Z,93.80
2019-03-26T13:13:07.279Z,93.90
2019-03-26T13:15:35.955Z,94.10
2019-03-26T13:18:05.057Z,93.80
2019-03-26T13:20:35.268Z,94.10
2019-03-26T13:23:03.918Z,94.10
2019-03-26T13:25:32.554Z,94.10
2019-03-26T13:28:01.153Z,94.10
2019-03-26T13:30:30.025Z,94.40
2019-03-26T13:32:58.585Z,94.50
2019-03-26T13:35:27.246Z,94.70
2019-03-26T13:37:55.800Z,94.60
2019-03-26T13:40:27.613Z,94.70
2019-03-26T13:42:54.902Z,94.60
2019-03-26T13:45:24.475Z,94.90
2019-03-26T13:47:53.123Z,95.10
2019-03-26T13:50:21.766Z,95.10
2019-03-26T13:52:50.359Z,95.20
2019-03-26T13:55:18.999Z,95.10
2019-03-26T13:57:50.319Z,95.10
2019-03-26T14:00:21.987Z,95.10
2019-03-26T14:02:50.565Z,94.90
2019-03-26T14:05:26.063Z,95.00
2019-03-26T14:07:55.586Z,94.80
2019-03-26T14:10:24.389Z,95.00
2019-03-26T14:12:52.961Z,95.10
2019-03-26T14:15:27.406Z,95.40
2019-03-26T14:17:56.074Z,95.60
2019-03-26T14:20:24.879Z,95.50
2019-03-26T14:22:53.465Z,95.20
2019-03-26T14:25:22.126Z,95.40
2019-03-26T14:27:50.765Z,95.10
2019-03-26T14:30:26.083Z,94.90
2019-03-26T14:32:58.002Z,94.60
2019-03-26T14:35:48.975Z,94.00
2019-03-26T14:38:20.505Z,93.80
2019-03-26T14:40:55.728Z,93.80
2019-03-26T14:43:25.914Z,91.80
2019-03-26T14:45:56.083Z,92.60
2019-03-26T14:48:24.675Z,92.80
2019-03-26T14:50:53.280Z,92.60
2019-03-26T14:53:21.962Z,92.90
2019-03-26T14:55:50.913Z,93.00
2019-03-26T14:58:21.124Z,93.20
2019-03-26T15:00:51.256Z,93.20
2019-03-26T15:03:19.859Z,93.20
2019-03-26T15:05:48.612Z,93.50
2019-03-26T15:08:17.171Z,93.50
2019-03-26T15:10:45.742Z,93.80
2019-03-26T15:13:14.351Z,93.80
2019-03-26T15:15:48.414Z,93.90
2019-03-26T15:18:17.078Z,93.80
2019-03-26T15:20:48.736Z,93.80
2019-03-26T15:23:17.423Z,93.50
2019-03-26T15:25:46.027Z,93.30
2019-03-26T15:28:14.689Z,93.10
2019-03-26T15:30:43.245Z,93.00
2019-03-26T15:33:14.807Z,93.10
2019-03-26T15:35:43.445Z,93.50
2019-03-26T15:38:12.072Z,93.70
2019-03-26T15:40:40.729Z,93.70
2019-03-26T15:43:09.457Z,93.70
2019-03-26T15:45:38.213Z,93.50
2019-03-26T15:48:07.017Z,93.70
2019-03-26T15:50:46.206Z,94.20
2019-03-26T15:53:15.309Z,94.30
2019-03-26T15:55:48.089Z,94.00
2019-03-26T15:58:23.632Z,94.40
2019-03-26T16:00:52.357Z,94.00
2019-03-26T16:03:25.374Z,94.20
2019-03-26T16:05:54.062Z,94.40
2019-03-26T16:08:22.717Z,94.50
2019-03-26T16:10:51.299Z,94.40
2019-03-26T16:13:19.944Z,94.50
2019-03-26T16:15:51.650Z,94.30
2019-03-26T16:18:18.748Z,93.50
2019-03-26T16:20:47.304Z,93.70
2019-03-26T16:23:19.642Z,93.60
2019-03-26T16:25:48.228Z,93.60
2019-03-26T16:28:16.807Z,93.60
2019-03-26T16:30:48.436Z,93.70
2019-03-26T16:33:17.359Z,93.70
2019-03-26T16:35:46.017Z,93.90
2019-03-26T16:38:16.671Z,94.00
2019-03-26T16:40:48.439Z,94.10
2019-03-26T16:43:17.017Z,94.20
2019-03-26T16:45:45.558Z,94.40
2019-03-26T16:48:16.805Z,94.60
2019-03-26T16:50:45.387Z,94.60
2019-03-26T16:53:13.966Z,94.50
2019-03-26T16:55:44.063Z,94.50
2019-03-26T16:58:12.693Z,94.40
2019-03-26T17:00:41.288Z,94.70
2019-03-26T17:03:09.859Z,94.60
2019-03-26T17:05:40.823Z,94.70
2019-03-26T17:08:09.775Z,94.80
2019-03-26T17:10:38.390Z,94.90
2019-03-26T17:13:07.130Z,95.10
2019-03-26T17:15:36.103Z,95.30
2019-03-26T17:18:08.317Z,95.30
2019-03-26T17:20:36.954Z,95.20
2019-03-26T17:23:05.579Z,95.20
2019-03-26T17:25:34.168Z,95.10
2019-03-26T17:28:02.762Z,95.30
2019-03-26T17:30:31.328Z,95.20
2019-03-26T17:33:00.090Z,94.90
2019-03-26T17:35:28.665Z,95.20
2019-03-26T17:37:59.867Z,94.70
2019-03-26T17:40:31.813Z,94.30
2019-03-26T17:43:00.369Z,94.30
2019-03-26T17:45:28.969Z,94.30
2019-03-26T17:47:57.595Z,94.20
2019-03-26T17:50:26.276Z,94.00
2019-03-26T17:52:54.842Z,94.30
2019-03-26T17:55:23.413Z,94.30
2019-03-26T17:57:52.067Z,94.20
2019-03-26T18:00:23.693Z,94.20
2019-03-26T18:02:54.811Z,94.20
2019-03-26T18:05:29.077Z,94.50
2019-03-26T18:08:00.947Z,94.60
2019-03-26T18:10:30.005Z,94.80
2019-03-26T18:12:58.976Z,95.00
2019-03-26T18:15:27.957Z,94.90
2019-03-26T18:18:03.065Z,94.90
2019-03-26T18:20:32.713Z,94.30
2019-03-26T18:23:00.779Z,94.40
2019-03-26T18:25:29.407Z,94.30
2019-03-26T18:28:00.886Z,94.30
2019-03-26T18:30:30.083Z,94.30
2019-03-26T18:32:58.667Z,94.40
2019-03-26T18:35:28.788Z,94.20
2019-03-26T18:37:57.472Z,94.70
2019-03-26T18:40:27.137Z,94.20
2019-03-26T18:42:57.647Z,94.50
2019-03-26T18:45:26.220Z,94.50
2019-03-26T18:47:55.076Z,94.60
2019-03-26T18:50:23.747Z,94.60
2019-03-26T18:52:52.378Z,94.80
2019-03-26T18:55:20.980Z,94.60
2019-03-26T18:57:51.801Z,94.70
2019-03-26T19:00:34.667Z,94.70
2019-03-26T19:03:03.613Z,94.40
2019-03-26T19:05:32.261Z,94.60
2019-03-26T19:08:03.746Z,94.60
2019-03-26T19:10:36.104Z,94.80
2019-03-26T19:13:18.122Z,94.80
2019-03-26T19:15:35.169Z,95.00
2019-03-26T19:18:05.748Z,94.90
2019-03-26T19:20:38.516Z,94.90
2019-03-26T19:23:09.221Z,94.90
2019-03-26T19:25:43.754Z,95.00
2019-03-26T19:28:12.695Z,95.10
2019-03-26T19:30:41.287Z,95.20
2019-03-26T19:33:09.888Z,95.30
2019-03-26T19:35:38.491Z,95.10
2019-03-26T19:38:07.103Z,95.20
2019-03-26T19:40:35.741Z,95.20
2019-03-26T19:43:10.808Z,95.20
2019-03-26T19:45:35.455Z,95.20
2019-03-26T19:48:04.118Z,95.10
2019-03-26T19:50:35.058Z,95.20
2019-03-26T19:53:03.706Z,95.40
2019-03-26T19:55:34.049Z,95.50
2019-03-26T19:58:02.700Z,95.70
2019-03-26T20:00:33.064Z,95.50
2019-03-26T20:03:03.163Z,95.60
2019-03-26T20:05:35.568Z,95.50
2019-03-26T20:08:08.203Z,95.80
2019-03-26T20:10:38.475Z,95.70
2019-03-26T20:13:07.912Z,95.80
2019-03-26T20:15:37.666Z,95.90
2019-03-26T20:18:06.460Z,95.90
2019-03-26T20:20:35.319Z,96.10
2019-03-26T20:23:04.081Z,96.20
2019-03-26T20:25:41.768Z,96.10
2019-03-26T20:28:10.435Z,96.20
2019-03-26T20:30:47.767Z,96.20
2019-03-26T20:33:19.954Z,96.10
2019-03-26T20:35:48.633Z,96.20
2019-03-26T20:38:18.074Z,96.50
2019-03-26T20:40:46.874Z,96.40
2019-03-26T20:43:16.058Z,96.50
2019-03-26T20:45:44.615Z,96.40
2019-03-26T20:48:13.274Z,96.50
2019-03-26T20:50:41.982Z,96.40
2019-03-26T20:53:16.199Z,96.40
2019-03-26T20:55:54.334Z,96.50
2019-03-26T20:58:21.404Z,96.40
2019-03-26T21:00:50.014Z,96.50
2019-03-26T21:03:19.438Z,96.50
2019-03-26T21:05:48.804Z,96.60
2019-03-26T21:08:19.080Z,96.70
2019-03-26T21:10:47.684Z,96.70
2019-03-26T21:13:20.476Z,96.70
2019-03-26T21:15:57.159Z,96.70
2019-03-26T21:18:19.291Z,96.90
2019-03-26T21:20:47.936Z,96.90
2019-03-26T21:23:18.065Z,97.00
2019-03-26T21:25:46.643Z,97.00
2019-03-26T21:28:15.222Z,97.20
2019-03-26T21:31:06.130Z,97.20
2019-03-26T21:33:14.061Z,97.20
2019-03-26T21:35:44.222Z,97.30
2019-03-26T21:38:12.793Z,97.40
2019-03-26T21:40:41.382Z,97.60
2019-03-26T21:43:09.971Z,97.60
2019-03-26T21:45:39.875Z,97.60
2019-03-26T21:48:08.821Z,97.60
2019-03-26T21:50:37.536Z,97.80
2019-03-26T21:53:06.244Z,97.90
2019-03-26T21:55:34.838Z,98.10
2019-03-26T21:58:03.477Z,98.20
2019-03-26T22:00:32.207Z,98.40
2019-03-26T22:03:03.509Z,98.50
2019-03-26T22:05:32.075Z,98.70
2019-03-26T22:08:00.680Z,98.70
2019-03-26T22:10:29.333Z,98.60
2019-03-26T22:12:57.977Z,98.70
2019-03-26T22:15:26.597Z,98.70
2019-03-26T22:17:55.221Z,98.80
2019-03-26T22:20:23.831Z,98.70
2019-03-26T22:22:52.820Z,98.70
2019-03-26T22:25:21.433Z,98.70
2019-03-26T22:27:50.064Z,98.70
2019-03-26T22:30:18.799Z,98.80
2019-03-26T22:32:47.412Z,98.80
2019-03-26T22:35:15.979Z,98.90
2019-03-26T22:37:44.590Z,99.00
2019-03-26T22:40:13.516Z,99.00
2019-03-26T22:42:42.085Z,99.20
2019-03-26T22:45:11.228Z,99.30
2019-03-26T22:47:41.152Z,99.20
2019-03-26T22:50:12.028Z,99.50
2019-03-26T22:52:40.700Z,99.40
2019-03-26T22:55:13.177Z,99.60
2019-03-26T22:57:41.908Z,99.80
2019-03-26T23:00:18.702Z,99.90
2019-03-26T23:02:47.327Z,99.90
2019-03-26T23:05:16.524Z,99.90
2019-03-26T23:07:45.206Z,99.90
2019-03-26T23:10:14.610Z,99.90
2019-03-26T23:12:43.325Z,99.90
2019-03-26T23:15:23.967Z,99.90
2019-03-26T23:17:52.668Z,99.90
2019-03-26T23:20:24.146Z,99.90
2019-03-26T23:22:52.776Z,99.90
2019-03-26T23:25:21.362Z,99.90
2019-03-26T23:27:50.026Z,99.90
2019-03-26T23:30:18.898Z,99.90
2019-03-26T23:32:47.463Z,99.90
2019-03-26T23:35:16.055Z,99.90
2019-03-26T23:37:44.628Z,99.90
2019-03-26T23:40:13.540Z,99.90
2019-03-26T23:42:42.264Z,99.90
2019-03-26T23:45:11.185Z,99.90
2019-03-26T23:47:39.763Z,99.90
2019-03-26T23:50:08.693Z,99.90
2019-03-26T23:52:37.487Z,99.90
2019-03-26T23:55:10.483Z,99.90
2019-03-26T23:57:39.077Z,99.90
